Time;durP1;ratioP1;P1;durP2;ratioP2;P2;SDS_P1;SDS_P2;PMS_P1;PMS_P2;Temp;Humidity;BMP_temperature;BMP_pressure;BME280_temperature;BME280_humidity;BME280_pressure;Samples;Min_cycle;Max_cycle;Signal;HPM_P1;HPM_P2
2023/01/02 00:00:29;;;;;;;21.30;13.63;;;10.70;38.90;;;;;;10396336;28;20225;-72
2023/01/02 00:05:33;;;;;;;21.10;13.70;;;10.70;38.90;;;;;;10395144;28;20240;-72
2023/01/02 00:10:36;;;;;;;36.83;21.10;;;10.70;38.80;;;;;;10399468;28;20218;-72
2023/01/02 00:15:40;;;;;;;31.40;17.40;;;10.60;38.60;;;;;;10401628;28;20248;-72
2023/01/02 00:20:43;;;;;;;25.50;13.33;;;10.50;38.60;;;;;;10401185;28;20729;-72
2023/01/02 00:25:48;;;;;;;17.73;10.50;;;10.30;38.70;;;;;;10403622;28;20241;-72
2023/01/02 00:30:52;;;;;;;10.83;7.67;;;10.20;38.90;;;;;;10408586;28;20751;-72
2023/01/02 00:35:55;;;;;;;9.17;6.70;;;10.10;39.00;;;;;;10401702;28;20905;-72
2023/01/02 00:40:59;;;;;;;6.40;5.80;;;10.10;39.00;;;;;;10413222;28;20217;-72
2023/01/02 00:46:03;;;;;;;5.80;5.03;;;10.10;39.10;;;;;;10413920;28;20234;-72
2023/01/02 00:51:14;;;;;;;6.33;4.90;;;10.00;39.10;;;;;;10394537;28;20229;-72
2023/01/02 00:56:17;;;;;;;5.97;5.13;;;10.00;38.90;;;;;;10398170;28;20233;-72
2023/01/02 01:01:21;;;;;;;4.83;4.33;;;9.90;40.00;;;;;;10407972;28;20780;-72
2023/01/02 01:06:24;;;;;;;5.37;4.47;;;9.80;40.20;;;;;;10404835;28;20276;-72
2023/01/02 01:11:27;;;;;;;5.17;4.77;;;9.70;40.00;;;;;;10396535;28;20222;-72
2023/01/02 01:16:32;;;;;;;5.47;4.77;;;9.60;40.30;;;;;;10403669;28;20237;-72
2023/01/02 01:21:35;;;;;;;5.03;4.50;;;9.60;40.50;;;;;;10397041;28;20237;-72
2023/01/02 01:26:38;;;;;;;4.90;4.40;;;9.50;40.50;;;;;;10405703;28;20237;-72
2023/01/02 01:31:43;;;;;;;4.63;4.23;;;9.50;40.50;;;;;;10399548;28;20224;-72
2023/01/02 01:36:46;;;;;;;4.50;4.10;;;9.50;40.50;;;;;;10392178;28;20321;-72
2023/01/02 01:41:49;;;;;;;4.53;3.77;;;9.50;40.30;;;;;;10391516;28;20256;-72
2023/01/02 01:46:54;;;;;;;4.77;4.27;;;9.40;40.30;;;;;;10401593;28;20224;-72
2023/01/02 01:52:02;;;;;;;4.53;4.13;;;9.40;40.40;;;;;;10387416;28;20274;-72
2023/01/02 01:57:17;;;;;;;5.20;4.67;;;9.40;40.40;;;;;;10398676;28;20230;-72
2023/01/02 02:02:23;;;;;;;5.93;4.60;;;9.40;40.40;;;;;;10401220;28;20717;-72
2023/01/02 02:07:27;;;;;;;4.33;3.93;;;9.30;40.30;;;;;;10395988;28;20233;-72
2023/01/02 02:12:32;;;;;;;4.67;4.27;;;9.30;40.30;;;;;;10401263;28;20232;-72
2023/01/02 02:17:51;;;;;;;4.70;4.30;;;9.30;40.30;;;;;;10406189;28;20651;-72
2023/01/02 02:23:54;;;;;;;4.07;3.67;;;9.30;40.30;;;;;;10393859;28;20237;-72
2023/01/02 02:29:41;;;;;;;4.60;4.20;;;9.30;40.30;;;;;;10223426;28;20292;-72
2023/01/02 02:34:55;;;;;;;4.97;4.47;;;9.20;40.20;;;;;;10401723;28;20225;-72
2023/01/02 02:40:10;;;;;;;4.30;3.90;;;9.20;40.20;;;;;;10394032;28;20731;-72
2023/01/02 02:45:20;;;;;;;4.60;4.20;;;9.20;40.20;;;;;;10388601;28;20251;-72
2023/01/02 02:50:34;;;;;;;4.40;4.00;;;9.20;40.20;;;;;;10397153;28;20716;-73
2023/01/02 02:55:43;;;;;;;5.23;4.60;;;9.10;40.10;;;;;;10396668;28;20234;-72
2023/01/02 03:00:47;;;;;;;5.00;4.50;;;9.10;40.10;;;;;;10396810;28;20217;-72
2023/01/02 03:06:08;;;;;;;6.43;4.80;;;9.10;40.10;;;;;;10395336;28;20238;-72
2023/01/02 03:11:12;;;;;;;5.93;5.40;;;9.00;40.10;;;;;;10392455;28;20607;-72
2023/01/02 03:16:23;;;;;;;6.40;5.80;;;8.90;40.00;;;;;;10398743;28;20736;-72
2023/01/02 03:21:33;;;;;;;6.40;5.80;;;8.90;40.00;;;;;;10399231;28;20768;-72
2023/01/02 03:26:39;;;;;;;5.93;4.40;;;8.70;39.80;;;;;;10394816;28;20226;-72
2023/01/02 03:31:46;;;;;;;5.20;4.70;;;8.70;39.80;;;;;;10399604;28;20244;-72
2023/01/02 03:36:55;;;;;;;5.33;4.83;;;8.70;39.80;;;;;;10399785;28;20607;-72
2023/01/02 03:42:03;;;;;;;6.60;6.00;;;8.60;40.30;;;;;;10401157;28;20710;-72
2023/01/02 03:47:14;;;;;;;5.90;5.30;;;8.50;41.10;;;;;;10410927;28;20233;-72
2023/01/02 03:52:18;;;;;;;5.50;4.80;;;8.40;40.40;;;;;;10406858;28;20229;-72
2023/01/02 03:57:35;;;;;;;4.47;4.03;;;8.40;40.30;;;;;;10407454;28;20237;-72
2023/01/02 04:02:44;;;;;;;4.43;4.00;;;8.30;40.90;;;;;;10397843;28;20226;-72
2023/01/02 04:07:54;;;;;;;5.47;4.80;;;8.30;40.70;;;;;;10409720;28;20305;-72
2023/01/02 04:13:01;;;;;;;6.30;5.70;;;8.30;41.00;;;;;;10405134;28;20225;-72
2023/01/02 04:18:08;;;;;;;5.93;4.97;;;8.20;40.90;;;;;;10400855;28;20234;-72
2023/01/02 04:23:17;;;;;;;5.10;4.60;;;8.20;40.90;;;;;;10402972;28;20287;-72
2023/01/02 04:28:24;;;;;;;5.27;4.80;;;8.20;41.10;;;;;;10409763;28;20232;-72
2023/01/02 04:33:29;;;;;;;5.70;5.20;;;8.20;41.10;;;;;;10396183;28;20283;-72
2023/01/02 04:38:34;;;;;;;4.90;4.40;;;8.30;40.90;;;;;;10412207;28;20228;-72
2023/01/02 04:43:37;;;;;;;4.20;3.80;;;8.30;40.70;;;;;;10412246;28;20233;-72
2023/01/02 04:48:40;;;;;;;4.70;4.30;;;8.30;40.40;;;;;;10416161;28;20222;-72
2023/01/02 04:53:47;;;;;;;4.20;3.80;;;8.20;40.30;;;;;;10396196;28;20226;-72
2023/01/02 04:58:50;;;;;;;4.63;4.23;;;8.20;40.80;;;;;;10398051;28;20245;-72
2023/01/02 05:03:54;;;;;;;4.37;3.97;;;8.20;40.60;;;;;;10400505;28;20230;-72
2023/01/02 05:08:58;;;;;;;4.97;4.47;;;8.10;40.60;;;;;;10402070;28;20230;-72
2023/01/02 05:14:01;;;;;;;4.83;4.40;;;8.10;40.90;;;;;;10392367;28;20249;-72
2023/01/02 05:19:09;;;;;;;3.97;3.63;;;8.10;40.80;;;;;;10400795;28;20656;-72
2023/01/02 05:24:14;;;;;;;4.00;3.70;;;8.10;40.80;;;;;;10400579;28;20233;-72
2023/01/02 05:29:17;;;;;;;4.27;3.87;;;8.10;40.90;;;;;;10406069;28;20610;-72
2023/01/02 05:34:20;;;;;;;7.10;4.10;;;8.10;40.60;;;;;;10391136;28;20272;-72
2023/01/02 05:39:24;;;;;;;4.47;4.07;;;8.10;40.70;;;;;;10393125;28;20713;-72
2023/01/02 05:44:27;;;;;;;4.77;4.27;;;8.00;40.80;;;;;;10386352;28;20230;-72
2023/01/02 05:49:31;;;;;;;5.40;4.43;;;8.00;40.70;;;;;;10390214;28;20232;-72
2023/01/02 05:54:35;;;;;;;4.57;3.93;;;8.00;41.60;;;;;;10392169;28;20233;-72
2023/01/02 05:59:38;;;;;;;5.20;4.70;;;7.90;41.10;;;;;;10396949;28;20232;-72
2023/01/02 06:04:41;;;;;;;4.73;4.20;;;7.90;41.00;;;;;;10398526;28;20225;-72
2023/01/02 06:09:46;;;;;;;7.00;4.70;;;7.90;41.00;;;;;;10407225;28;20299;-72
2023/01/02 06:14:49;;;;;;;4.60;4.20;;;7.80;41.10;;;;;;10399165;28;20228;-72
2023/01/02 06:19:52;;;;;;;4.70;4.23;;;7.80;41.10;;;;;;10401220;28;20272;-72
2023/01/02 06:24:57;;;;;;;4.43;4.03;;;7.70;40.90;;;;;;10393269;28;20876;-72
2023/01/02 06:30:00;;;;;;;4.40;4.00;;;7.70;41.30;;;;;;10394601;28;20599;-71
2023/01/02 06:35:04;;;;;;;4.20;3.83;;;7.60;41.20;;;;;;10395469;28;20233;-71
2023/01/02 06:40:09;;;;;;;4.50;4.10;;;7.60;41.30;;;;;;10405666;28;20233;-71
2023/01/02 06:45:12;;;;;;;4.43;4.07;;;7.70;41.60;;;;;;10401751;28;20364;-72
2023/01/02 06:50:15;;;;;;;6.47;5.10;;;7.70;41.30;;;;;;10399044;28;20237;-71
2023/01/02 06:55:20;;;;;;;5.83;5.23;;;7.70;41.10;;;;;;10399970;28;20234;-71
2023/01/02 07:00:23;;;;;;;9.83;8.83;;;7.70;41.10;;;;;;10387323;28;20229;-71
2023/01/02 07:05:26;;;;;;;10.03;9.13;;;7.60;41.10;;;;;;10399597;28;20245;-72
2023/01/02 07:10:30;;;;;;;11.00;10.00;;;7.60;41.10;;;;;;10391545;28;20221;-72
2023/01/02 07:15:35;;;;;;;13.30;12.07;;;7.60;41.30;;;;;;10400005;28;20275;-72
2023/01/02 07:20:38;;;;;;;6.37;5.77;;;7.50;41.10;;;;;;10405132;28;20229;-72
2023/01/02 07:25:42;;;;;;;5.43;4.93;;;7.50;41.20;;;;;;10413494;28;20234;-72
2023/01/02 07:30:46;;;;;;;4.97;3.90;;;7.50;41.60;;;;;;10407087;28;20228;-72
2023/01/02 07:35:49;;;;;;;4.57;4.03;;;7.50;41.50;;;;;;10400163;28;20225;-72
2023/01/02 07:40:54;;;;;;;5.40;4.17;;;7.50;41.70;;;;;;10395412;28;20787;-72
2023/01/02 07:46:02;;;;;;;5.33;4.87;;;7.60;42.10;;;;;;10408546;28;20731;-72
2023/01/02 07:51:07;;;;;;;4.93;4.43;;;7.60;42.50;;;;;;10408808;28;20221;-72
2023/01/02 07:56:11;;;;;;;4.80;4.40;;;7.60;42.30;;;;;;10399720;28;20237;-72
2023/01/02 08:01:14;;;;;;;5.37;4.67;;;7.70;42.60;;;;;;10408425;28;20771;-72
2023/01/02 08:06:19;;;;;;;4.60;4.20;;;7.80;42.60;;;;;;10397257;28;20296;-72
2023/01/02 08:11:23;;;;;;;5.07;4.67;;;7.90;42.70;;;;;;10402887;28;20316;-72
2023/01/02 08:16:26;;;;;;;4.60;4.03;;;8.00;43.00;;;;;;10396656;28;20229;-72
2023/01/02 08:21:29;;;;;;;5.33;4.77;;;8.00;42.70;;;;;;10405455;28;20320;-72
2023/01/02 08:26:34;;;;;;;6.50;5.00;;;8.20;42.70;;;;;;10408862;28;20741;-72
2023/01/02 08:31:37;;;;;;;5.17;4.67;;;8.30;43.10;;;;;;10405659;28;20218;-72
2023/01/02 08:36:46;;;;;;;4.80;4.40;;;8.50;43.00;;;;;;10406938;28;20275;-72
2023/01/02 08:41:50;;;;;;;4.50;4.10;;;8.60;43.00;;;;;;10399654;28;20268;-72
2023/01/02 08:46:53;;;;;;;4.77;4.03;;;8.80;43.50;;;;;;10399637;28;20237;-72
2023/01/02 08:51:56;;;;;;;5.20;4.60;;;8.90;43.20;;;;;;10398128;28;20234;-72
2023/01/02 08:57:01;;;;;;;4.67;4.27;;;9.10;43.30;;;;;;10400082;28;20698;-72
2023/01/02 09:02:04;;;;;;;4.13;3.73;;;9.30;43.50;;;;;;10398062;28;20638;-72
2023/01/02 09:07:07;;;;;;;4.07;3.53;;;9.50;43.30;;;;;;10404160;28;20308;-72
2023/01/02 09:12:12;;;;;;;6.03;4.20;;;9.70;43.30;;;;;;10394269;28;20232;-72
2023/01/02 09:17:15;;;;;;;4.70;4.17;;;9.80;43.50;;;;;;10403027;28;20240;-72
2023/01/02 09:22:18;;;;;;;4.87;4.37;;;10.00;42.50;;;;;;10396437;28;20222;-72
2023/01/02 09:27:22;;;;;;;4.70;4.00;;;10.20;42.50;;;;;;10404142;28;20236;-72
2023/01/02 09:32:25;;;;;;;4.40;4.00;;;10.50;43.10;;;;;;10401870;28;20221;-72
2023/01/02 09:37:28;;;;;;;4.20;3.80;;;10.70;43.00;;;;;;10395400;28;20237;-72
2023/01/02 09:42:33;;;;;;;4.50;4.10;;;10.90;43.90;;;;;;10393932;28;20218;-72
2023/01/02 09:47:39;;;;;;;5.83;4.07;;;11.20;43.40;;;;;;10395616;28;20225;-72
2023/01/02 09:52:45;;;;;;;4.67;3.80;;;11.50;43.40;;;;;;10398604;28;20601;-72
2023/01/02 09:57:56;;;;;;;4.03;3.63;;;11.80;43.10;;;;;;10399585;28;20762;-72
2023/01/02 10:03:12;;;;;;;4.50;3.57;;;12.00;43.00;;;;;;10409988;28;20225;-72
2023/01/02 10:08:22;;;;;;;3.70;3.40;;;12.30;42.40;;;;;;10397750;28;20229;-72
2023/01/02 10:13:41;;;;;;;3.57;3.27;;;12.60;42.20;;;;;;10398257;28;20217;-72
2023/01/02 10:19:12;;;;;;;3.27;3.00;;;12.80;42.40;;;;;;10400951;28;20284;-72
2023/01/02 10:24:20;;;;;;;3.20;3.00;;;13.10;42.70;;;;;;10402584;28;20233;-72
2023/01/02 10:29:29;;;;;;;3.70;3.30;;;13.30;41.90;;;;;;10394418;28;20233;-72
2023/01/02 10:34:39;;;;;;;3.47;3.17;;;13.60;41.60;;;;;;10394029;28;20705;-72
2023/01/02 10:39:44;;;;;;;3.53;3.23;;;13.70;41.20;;;;;;10398023;28;20234;-72
2023/01/02 10:44:49;;;;;;;3.43;3.13;;;13.90;41.60;;;;;;10406383;28;20225;-72
2023/01/02 10:49:53;;;;;;;3.43;3.13;;;14.00;41.60;;;;;;10399371;28;20233;-72
2023/01/02 10:54:57;;;;;;;3.37;3.10;;;14.10;41.50;;;;;;10395022;28;20249;-72
2023/01/02 11:00:07;;;;;;;2.87;2.67;;;14.30;41.50;;;;;;10398148;28;20234;-72
2023/01/02 11:05:20;;;;;;;3.00;2.80;;;14.60;41.10;;;;;;10393895;28;20224;-72
2023/01/02 11:10:29;;;;;;;3.77;2.90;;;14.80;40.20;;;;;;10394212;28;20241;-72
2023/01/02 11:15:34;;;;;;;3.63;2.93;;;15.00;40.20;;;;;;10391360;28;20643;-72
2023/01/02 11:20:37;;;;;;;3.10;2.80;;;15.20;40.80;;;;;;10395940;28;20233;-72
2023/01/02 11:25:42;;;;;;;3.03;2.67;;;15.50;40.70;;;;;;10398739;28;20229;-72
2023/01/02 11:30:49;;;;;;;3.20;2.90;;;15.60;40.10;;;;;;10396920;28;20230;-72
2023/01/02 11:35:54;;;;;;;2.90;2.70;;;15.80;39.50;;;;;;10391985;28;20743;-72
2023/01/02 11:41:00;;;;;;;3.43;3.10;;;15.90;39.50;;;;;;10399594;28;20217;-72
2023/01/02 11:46:09;;;;;;;3.23;2.93;;;15.90;39.00;;;;;;10389327;28;20238;-72
2023/01/02 11:51:16;;;;;;;5.60;3.60;;;16.00;39.00;;;;;;10398624;28;20291;-72
2023/01/02 11:56:25;;;;;;;4.07;3.67;;;16.00;38.80;;;;;;10402525;28;20261;-72
2023/01/02 12:01:41;;;;;;;3.87;3.37;;;16.00;38.60;;;;;;10391686;28;20230;-72
2023/01/02 12:07:10;;;;;;;3.97;3.67;;;16.10;38.00;;;;;;10403439;28;20233;-72
2023/01/02 12:12:32;;;;;;;3.93;3.53;;;16.10;37.80;;;;;;10396617;28;20221;-72
2023/01/02 12:17:44;;;;;;;3.90;3.53;;;16.10;37.80;;;;;;10406987;28;20260;-72
2023/01/02 12:23:18;;;;;;;5.03;4.40;;;16.10;37.50;;;;;;10394225;28;20225;-72
2023/01/02 12:28:47;;;;;;;4.77;4.37;;;16.10;38.00;;;;;;10403487;28;20226;-72
2023/01/02 12:34:06;;;;;;;4.27;3.63;;;16.20;37.60;;;;;;10398541;28;20349;-72
2023/01/02 12:39:25;;;;;;;6.23;4.70;;;16.20;37.50;;;;;;10414671;28;20229;-72
2023/01/02 12:44:48;;;;;;;8.80;7.70;;;16.20;37.30;;;;;;10406041;28;20773;-72
2023/01/02 12:50:15;;;;;;;7.47;5.80;;;16.30;37.40;;;;;;10401104;28;20721;-72
2023/01/02 12:55:30;;;;;;;7.57;6.70;;;16.30;37.70;;;;;;10398013;28;20230;-72
2023/01/02 13:00:49;;;;;;;7.50;6.70;;;16.30;37.40;;;;;;10398176;28;20333;-72
2023/01/02 13:06:06;;;;;;;7.67;6.40;;;16.30;37.70;;;;;;10395763;28;20221;-72
2023/01/02 13:11:37;;;;;;;7.43;4.67;;;16.30;37.70;;;;;;10403226;28;20759;-72
2023/01/02 13:16:43;;;;;;;5.10;4.60;;;16.30;37.80;;;;;;10395840;28;20230;-72
2023/01/02 13:21:53;;;;;;;4.00;3.60;;;16.40;38.20;;;;;;10405289;28;20222;-72
2023/01/02 13:26:58;;;;;;;3.97;3.50;;;16.30;37.30;;;;;;10391895;28;20229;-72
2023/01/02 13:32:01;;;;;;;3.90;3.60;;;16.30;37.50;;;;;;10395813;28;20221;-72
2023/01/02 13:37:08;;;;;;;6.10;5.53;;;16.30;38.10;;;;;;10397666;28;20325;-72
2023/01/02 13:47:49;;;;;;;7.97;6.77;;;16.10;38.60;;;;;;10395162;28;20236;-72
2023/01/02 13:53:23;;;;;;;9.40;7.60;;;16.00;38.60;;;;;;10399829;28;20635;-72
2023/01/02 13:58:47;;;;;;;9.07;8.17;;;16.00;38.70;;;;;;10403542;28;20226;-72
2023/01/02 14:04:27;;;;;;;8.27;7.47;;;15.80;38.40;;;;;;10403159;28;20226;-72
2023/01/02 14:10:07;;;;;;;9.33;8.37;;;15.70;38.60;;;;;;10401017;28;20226;-72
2023/01/02 14:15:17;;;;;;;9.40;8.60;;;15.60;38.70;;;;;;10404049;28;20228;-72
2023/01/02 14:20:25;;;;;;;10.37;9.37;;;15.50;38.60;;;;;;10400732;28;20234;-72
2023/01/02 14:25:31;;;;;;;8.70;7.57;;;15.40;38.60;;;;;;10400210;28;20665;-70
2023/01/02 14:30:37;;;;;;;7.73;6.90;;;15.40;39.30;;;;;;10403918;28;20248;-70
2023/01/02 14:35:49;;;;;;;8.60;7.80;;;15.40;39.40;;;;;;10408734;28;20686;-72
2023/01/02 14:43:28;;;;;;;8.03;7.33;;;15.50;39.30;;;;;;10400930;28;20629;-72
2023/01/02 14:46:21;;;;;;;9.33;7.67;;;15.50;39.00;;;;;;10396814;28;20235;-72
2023/01/02 14:51:32;;;;;;;8.70;7.90;;;15.50;38.70;;;;;;10397993;28;20255;-72
2023/01/02 14:56:39;;;;;;;10.57;9.57;;;15.50;38.40;;;;;;10396783;28;20237;-73
2023/01/02 15:01:46;;;;;;;10.90;9.80;;;15.40;38.30;;;;;;10393478;28;20229;-72
2023/01/02 15:07:07;;;;;;;10.70;9.60;;;15.30;38.40;;;;;;10390800;28;20234;-72
2023/01/02 15:17:45;;;;;;;12.57;11.27;;;15.10;38.40;;;;;;10395030;28;20226;-72
2023/01/02 15:22:51;;;;;;;9.60;8.60;;;15.00;38.40;;;;;;10396442;28;20704;-79
2023/01/02 15:27:56;;;;;;;14.10;11.13;;;14.90;38.40;;;;;;10386491;28;20233;-78
2023/01/02 15:32:59;;;;;;;10.73;9.67;;;14.70;38.20;;;;;;10397769;28;20443;-79
2023/01/02 15:38:04;;;;;;;11.87;10.57;;;14.60;38.30;;;;;;10397983;28;20283;-77
2023/01/02 15:48:35;;;;;;;15.13;13.53;;;14.40;38.40;;;;;;10400604;28;20237;-79
2023/01/02 15:53:41;;;;;;;13.50;12.10;;;14.20;38.40;;;;;;10407188;28;20719;-79
2023/01/02 15:58:49;;;;;;;11.10;9.83;;;14.10;38.50;;;;;;10416108;28;20226;-74
2023/01/02 16:03:54;;;;;;;13.63;11.97;;;14.00;38.40;;;;;;10399895;28;20226;-77
2023/01/02 16:09:16;;;;;;;14.17;12.43;;;13.90;38.50;;;;;;10399967;28;20226;-75
2023/01/02 16:14:27;;;;;;;14.63;13.27;;;13.80;38.60;;;;;;10409764;28;20233;-77
2023/01/02 16:19:35;;;;;;;13.30;12.00;;;13.70;38.80;;;;;;10393404;28;20225;-77
2023/01/02 16:24:43;;;;;;;12.30;11.00;;;13.70;38.80;;;;;;10393928;28;21301;-77
2023/01/02 16:29:50;;;;;;;12.10;10.90;;;13.60;38.70;;;;;;10401980;28;20230;-77
2023/01/02 16:35:16;;;;;;;18.70;15.67;;;13.50;38.70;;;;;;10399062;28;20225;-77
2023/01/02 16:40:43;;;;;;;19.37;16.17;;;13.50;38.90;;;;;;10402589;28;20221;-76
2023/01/02 16:46:09;;;;;;;19.20;15.93;;;13.40;38.70;;;;;;10408842;28;20835;-76
2023/01/02 16:51:15;;;;;;;14.93;13.30;;;13.40;38.80;;;;;;10401275;28;20312;-76
2023/01/02 16:56:18;;;;;;;10.67;9.63;;;13.30;38.80;;;;;;10404312;28;20240;-76
2023/01/02 17:01:24;;;;;;;8.37;7.57;;;13.30;38.80;;;;;;10399852;28;20237;-76
2023/01/02 17:06:27;;;;;;;8.03;7.07;;;13.20;39.10;;;;;;10388138;28;20336;-76
2023/01/02 17:11:30;;;;;;;8.77;7.33;;;13.10;39.00;;;;;;10395729;28;20226;-76
2023/01/02 17:16:35;;;;;;;9.97;9.00;;;13.20;39.20;;;;;;10404608;28;20231;-76
2023/01/02 17:21:38;;;;;;;10.43;8.83;;;13.10;39.30;;;;;;10396873;28;20232;-76
2023/01/02 17:26:41;;;;;;;12.23;8.57;;;13.10;39.80;;;;;;10403102;28;20238;-75
2023/01/02 17:31:45;;;;;;;9.27;8.27;;;13.20;39.80;;;;;;10398401;28;20728;-75
2023/01/02 17:36:48;;;;;;;8.77;7.87;;;13.20;39.60;;;;;;10405677;28;20229;-75
2023/01/02 17:41:52;;;;;;;8.90;8.00;;;13.30;39.50;;;;;;10391273;28;20218;-74
2023/01/02 17:46:56;;;;;;;9.67;7.93;;;13.30;39.50;;;;;;10397399;28;20221;-74
2023/01/02 17:52:19;;;;;;;11.30;8.77;;;13.20;39.40;;;;;;10393312;28;20240;-75
2023/01/02 17:57:23;;;;;;;9.37;8.33;;;13.20;39.30;;;;;;10395846;28;20226;-74
2023/01/02 18:02:27;;;;;;;9.80;8.27;;;13.20;39.40;;;;;;10395791;28;20550;-74
2023/01/02 18:07:32;;;;;;;10.57;9.47;;;13.20;39.60;;;;;;10395249;28;20237;-74
2023/01/02 18:12:36;;;;;;;9.67;8.67;;;13.20;39.60;;;;;;10393796;28;20234;-74
2023/01/02 18:17:41;;;;;;;10.07;9.03;;;13.20;39.70;;;;;;10395164;28;20226;-74
2023/01/02 18:22:45;;;;;;;10.80;9.77;;;13.20;39.80;;;;;;10396856;28;20245;-74
2023/01/02 18:27:56;;;;;;;8.67;7.53;;;13.20;39.70;;;;;;10396531;28;20225;-75
2023/01/02 18:33:07;;;;;;;13.17;11.10;;;13.20;39.70;;;;;;10397391;28;20226;-75
2023/01/02 18:38:18;;;;;;;9.20;8.17;;;13.20;39.60;;;;;;10398504;28;20234;-74
2023/01/02 18:43:26;;;;;;;8.73;7.83;;;13.20;39.60;;;;;;10394802;28;20217;-74
2023/01/02 18:48:31;;;;;;;8.50;7.70;;;13.30;39.80;;;;;;10392432;28;20783;-75
2023/01/02 18:53:47;;;;;;;7.40;6.10;;;13.30;39.70;;;;;;10396061;28;20229;-74
2023/01/02 18:58:54;;;;;;;7.10;6.10;;;13.30;39.70;;;;;;10389078;28;20216;-74
2023/01/02 19:04:25;;;;;;;8.57;6.30;;;13.30;39.60;;;;;;10391427;28;20776;-69
2023/01/02 19:09:33;;;;;;;8.13;6.20;;;13.30;39.70;;;;;;10387325;28;20226;-69
2023/01/02 19:14:39;;;;;;;8.10;6.03;;;13.30;39.50;;;;;;10408659;28;20225;-69
2023/01/02 19:50:48;;;;;;;83.53;69.07;;;12.80;40.10;;;;;;10524661;27;20228;-76
2023/01/02 19:55:51;;;;;;;24.87;22.13;;;12.70;40.00;;;;;;10527175;28;20235;-75
2023/01/02 20:00:55;;;;;;;17.53;15.10;;;12.80;40.10;;;;;;10526622;28;20309;-74
2023/01/02 20:06:00;;;;;;;20.97;18.17;;;12.80;40.10;;;;;;10525700;28;20345;-73
2023/01/02 20:12:28;;;;;;;12.93;11.43;;;12.80;40.10;;;;;;10528422;28;20227;-75
2023/01/02 20:16:28;;;;;;;8.13;6.97;;;12.90;40.10;;;;;;10529779;28;20231;-75
2023/01/02 20:21:33;;;;;;;8.13;6.40;;;12.90;40.00;;;;;;10522026;28;20223;-74
2023/01/02 20:26:36;;;;;;;8.87;6.43;;;12.90;39.90;;;;;;10521962;28;20231;-73
2023/01/02 20:31:40;;;;;;;9.23;6.00;;;12.90;40.00;;;;;;10521597;28;20227;-74
2023/01/02 20:36:45;;;;;;;8.83;6.33;;;12.90;39.90;;;;;;10523470;28;20235;-74
2023/01/02 20:41:48;;;;;;;6.70;6.07;;;13.00;39.90;;;;;;10522333;28;20786;-74
2023/01/02 20:46:53;;;;;;;6.90;5.40;;;13.00;40.00;;;;;;10518710;28;20318;-74
2023/01/02 20:51:58;;;;;;;7.37;5.60;;;13.10;39.90;;;;;;10520337;28;20243;-74
2023/01/02 20:57:01;;;;;;;4.70;4.20;;;13.10;39.80;;;;;;10523264;28;20247;-75
2023/01/02 21:02:05;;;;;;;34.23;23.43;;;13.20;39.90;;;;;;10523976;28;20234;-74
2023/01/02 21:07:10;;;;;;;13.47;10.13;;;13.20;39.90;;;;;;10523352;28;20259;-74
2023/01/02 21:17:30;;;;;;;8.37;7.43;;;13.30;39.70;;;;;;10523539;28;20239;-74
2023/01/02 21:22:35;;;;;;;7.53;6.20;;;13.40;39.60;;;;;;10520774;28;20223;-74
2023/01/02 21:27:38;;;;;;;8.43;6.27;;;13.30;39.50;;;;;;10521236;28;20227;-74
2023/01/02 21:32:41;;;;;;;7.57;6.37;;;13.30;40.30;;;;;;10523694;28;20236;-74
2023/01/02 21:37:46;;;;;;;6.93;4.40;;;13.30;39.50;;;;;;10520640;28;20681;-73
2023/01/02 21:42:49;;;;;;;7.50;5.80;;;13.30;39.50;;;;;;10526019;28;20226;-73
2023/01/02 21:47:52;;;;;;;7.50;5.17;;;13.20;39.50;;;;;;10522276;28;20227;-74
2023/01/02 21:52:57;;;;;;;8.33;4.70;;;13.10;39.60;;;;;;10521300;28;20232;-73
2023/01/02 21:58:00;;;;;;;6.73;4.77;;;13.10;39.70;;;;;;10520694;28;20223;-73
2023/01/02 22:03:15;;;;;;;5.73;3.70;;;13.10;39.80;;;;;;10518905;28;20227;-73
2023/01/02 22:08:20;;;;;;;4.97;3.00;;;13.10;39.90;;;;;;10521918;28;20300;-73
2023/01/02 22:13:23;;;;;;;6.07;2.83;;;13.10;40.20;;;;;;10521808;28;20231;-73
2023/01/02 22:18:27;;;;;;;3.37;2.80;;;13.20;40.40;;;;;;10520897;28;20420;-73
2023/01/02 22:23:33;;;;;;;6.40;2.57;;;13.30;40.50;;;;;;10521165;28;20266;-74
2023/01/02 22:28:36;;;;;;;2.47;2.07;;;13.50;40.80;;;;;;10521430;28;20408;-75
2023/01/02 22:33:39;;;;;;;4.57;2.60;;;13.60;40.60;;;;;;10522130;28;20231;-73
2023/01/02 22:38:44;;;;;;;4.90;2.40;;;13.70;40.50;;;;;;10520394;28;20730;-74
2023/01/02 22:44:21;;;;;;;2.20;2.00;;;13.90;40.50;;;;;;10520559;28;20321;-74
2023/01/02 22:49:29;;;;;;;2.50;1.77;;;14.00;40.40;;;;;;10523459;28;20269;-75
2023/01/02 22:54:33;;;;;;;2.57;1.60;;;14.00;40.10;;;;;;10519744;28;20247;-74
2023/01/02 22:59:37;;;;;;;3.07;1.70;;;14.10;40.10;;;;;;10524944;28;20219;-73
2023/01/02 23:04:40;;;;;;;2.53;1.33;;;14.10;40.00;;;;;;10520347;28;20247;-74
2023/01/02 23:09:44;;;;;;;1.77;1.50;;;14.20;40.00;;;;;;10522534;28;20646;-73
2023/01/02 23:14:48;;;;;;;3.90;1.50;;;14.20;39.70;;;;;;10526179;28;20605;-73
2023/01/02 23:19:51;;;;;;;2.20;1.60;;;14.20;39.70;;;;;;10526272;28;20223;-73
2023/01/02 23:24:56;;;;;;;1.73;1.40;;;14.20;39.60;;;;;;10526628;28;20621;-74
2023/01/02 23:29:59;;;;;;;1.53;1.00;;;14.10;39.60;;;;;;10525795;28;20296;-73
2023/01/02 23:35:02;;;;;;;1.00;0.80;;;14.10;39.60;;;;;;10523617;28;20231;-73
2023/01/02 23:40:08;;;;;;;0.90;0.80;;;14.10;39.60;;;;;;10520751;28;20645;-74
2023/01/02 23:45:11;;;;;;;1.23;0.60;;;14.00;39.30;;;;;;10522780;28;21022;-74
2023/01/02 23:50:15;;;;;;;0.80;0.77;;;14.00;39.40;;;;;;10523683;28;20223;-73
2023/01/02 23:55:19;;;;;;;0.87;0.60;;;13.90;39.50;;;;;;10522386;28;20259;-73
